sensor_id;sensor_type;location;lat;lon;timestamp;P1;durP1;ratioP1;P2;durP2;ratioP2
68942;SDS011;60852;52.190;4.422;2023-03-23T00:01:24;4.93;;;4.93;;
68942;SDS011;60852;52.190;4.422;2023-03-23T00:03:52;4.75;;;4.75;;
68942;SDS011;60852;52.190;4.422;2023-03-23T00:06:22;4.63;;;4.63;;
68942;SDS011;60852;52.190;4.422;2023-03-23T00:08:51;4.46;;;4.46;;
68942;SDS011;60852;52.190;4.422;2023-03-23T01:22:02;3.11;;;3.11;;
68942;SDS011;60852;52.190;4.422;2023-03-23T01:24:28;3.21;;;3.20;;
68942;SDS011;60852;52.190;4.422;2023-03-23T01:26:53;3.07;;;3.07;;
68942;SDS011;60852;52.190;4.422;2023-03-23T01:29:19;3.17;;;3.16;;
68942;SDS011;60852;52.190;4.422;2023-03-23T01:31:44;3.18;;;3.16;;
68942;SDS011;60852;52.190;4.422;2023-03-23T01:34:10;3.24;;;3.24;;
68942;SDS011;60852;52.190;4.422;2023-03-23T01:36:35;3.17;;;3.17;;
68942;SDS011;60852;52.190;4.422;2023-03-23T01:39:02;3.10;;;3.07;;
68942;SDS011;60852;52.190;4.422;2023-03-23T01:41:29;3.13;;;3.12;;
68942;SDS011;60852;52.190;4.422;2023-03-23T01:44:00;3.27;;;3.27;;
68942;SDS011;60852;52.190;4.422;2023-03-23T01:46:32;3.22;;;3.22;;
68942;SDS011;60852;52.190;4.422;2023-03-23T01:49:04;2.94;;;2.94;;
68942;SDS011;60852;52.190;4.422;2023-03-23T01:51:38;3.23;;;3.21;;
68942;SDS011;60852;52.190;4.422;2023-03-23T01:54:26;3.04;;;3.04;;
68942;SDS011;60852;52.190;4.422;2023-03-23T01:57:05;3.16;;;3.16;;
68942;SDS011;60852;52.190;4.422;2023-03-23T01:59:36;3.32;;;3.32;;
68942;SDS011;60852;52.190;4.422;2023-03-23T02:02:03;3.15;;;3.15;;
68942;SDS011;60852;52.190;4.422;2023-03-23T02:04:29;3.05;;;3.04;;
68942;SDS011;60852;52.190;4.422;2023-03-23T02:06:58;3.06;;;3.05;;
68942;SDS011;60852;52.190;4.422;2023-03-23T02:09:27;3.23;;;3.23;;
68942;SDS011;60852;52.190;4.422;2023-03-23T02:11:53;3.25;;;3.25;;
68942;SDS011;60852;52.190;4.422;2023-03-23T02:14:19;3.05;;;3.05;;
68942;SDS011;60852;52.190;4.422;2023-03-23T02:19:33;3.09;;;3.09;;
68942;SDS011;60852;52.190;4.422;2023-03-23T02:22:15;3.13;;;3.13;;
68942;SDS011;60852;52.190;4.422;2023-03-23T02:24:51;3.21;;;3.21;;
68942;SDS011;60852;52.190;4.422;2023-03-23T02:30:20;3.05;;;3.02;;
68942;SDS011;60852;52.190;4.422;2023-03-23T02:36:17;3.43;;;3.37;;
68942;SDS011;60852;52.190;4.422;2023-03-23T02:38:57;2.84;;;2.80;;
68942;SDS011;60852;52.190;4.422;2023-03-23T02:41:30;3.22;;;3.17;;
68942;SDS011;60852;52.190;4.422;2023-03-23T02:44:05;3.17;;;3.15;;
68942;SDS011;60852;52.190;4.422;2023-03-23T02:46:33;3.15;;;3.14;;
68942;SDS011;60852;52.190;4.422;2023-03-23T02:49:01;3.00;;;3.00;;
68942;SDS011;60852;52.190;4.422;2023-03-23T02:51:31;2.99;;;2.98;;
68942;SDS011;60852;52.190;4.422;2023-03-23T02:54:00;2.99;;;2.95;;
68942;SDS011;60852;52.190;4.422;2023-03-23T02:56:30;3.14;;;3.08;;
68942;SDS011;60852;52.190;4.422;2023-03-23T02:58:57;3.34;;;3.22;;
68942;SDS011;60852;52.190;4.422;2023-03-23T03:03:57;3.20;;;3.05;;
68942;SDS011;60852;52.190;4.422;2023-03-23T03:06:33;3.15;;;2.97;;
68942;SDS011;60852;52.190;4.422;2023-03-23T03:11:37;3.33;;;3.12;;
68942;SDS011;60852;52.190;4.422;2023-03-23T03:14:19;3.41;;;3.18;;
68942;SDS011;60852;52.190;4.422;2023-03-23T03:17:01;3.53;;;3.22;;
68942;SDS011;60852;52.190;4.422;2023-03-23T03:19:40;3.65;;;3.24;;
68942;SDS011;60852;52.190;4.422;2023-03-23T03:22:11;3.83;;;3.38;;
68942;SDS011;60852;52.190;4.422;2023-03-23T03:24:38;4.49;;;3.85;;
68942;SDS011;60852;52.190;4.422;2023-03-23T03:27:11;4.31;;;3.67;;
68942;SDS011;60852;52.190;4.422;2023-03-23T03:29:41;4.04;;;3.44;;
68942;SDS011;60852;52.190;4.422;2023-03-23T03:32:15;3.63;;;3.18;;
68942;SDS011;60852;52.190;4.422;2023-03-23T03:34:45;4.22;;;3.69;;
68942;SDS011;60852;52.190;4.422;2023-03-23T03:37:12;4.27;;;3.58;;
68942;SDS011;60852;52.190;4.422;2023-03-23T03:39:38;4.81;;;3.84;;
68942;SDS011;60852;52.190;4.422;2023-03-23T03:42:05;5.00;;;3.97;;
68942;SDS011;60852;52.190;4.422;2023-03-23T03:44:31;5.08;;;4.02;;
68942;SDS011;60852;52.190;4.422;2023-03-23T03:46:58;5.33;;;4.18;;
68942;SDS011;60852;52.190;4.422;2023-03-23T03:49:24;5.26;;;4.10;;
68942;SDS011;60852;52.190;4.422;2023-03-23T03:51:50;5.30;;;4.15;;
68942;SDS011;60852;52.190;4.422;2023-03-23T03:54:16;4.45;;;3.55;;
68942;SDS011;60852;52.190;4.422;2023-03-23T03:56:42;4.32;;;3.59;;
68942;SDS011;60852;52.190;4.422;2023-03-23T03:59:08;4.61;;;3.95;;
68942;SDS011;60852;52.190;4.422;2023-03-23T04:01:36;3.91;;;3.46;;
68942;SDS011;60852;52.190;4.422;2023-03-23T04:04:03;3.99;;;3.55;;
68942;SDS011;60852;52.190;4.422;2023-03-23T04:06:30;4.38;;;3.78;;
68942;SDS011;60852;52.190;4.422;2023-03-23T04:08:57;5.02;;;4.17;;
68942;SDS011;60852;52.190;4.422;2023-03-23T04:11:24;5.22;;;4.25;;
68942;SDS011;60852;52.190;4.422;2023-03-23T04:13:50;5.78;;;4.75;;
68942;SDS011;60852;52.190;4.422;2023-03-23T04:16:16;6.30;;;4.91;;
68942;SDS011;60852;52.190;4.422;2023-03-23T04:18:42;7.12;;;5.43;;
68942;SDS011;60852;52.190;4.422;2023-03-23T04:21:07;7.79;;;5.88;;
68942;SDS011;60852;52.190;4.422;2023-03-23T04:23:33;7.31;;;5.53;;
68942;SDS011;60852;52.190;4.422;2023-03-23T04:26:00;8.16;;;5.82;;
68942;SDS011;60852;52.190;4.422;2023-03-23T04:28:28;9.41;;;6.55;;
68942;SDS011;60852;52.190;4.422;2023-03-23T04:30:54;9.68;;;6.68;;
68942;SDS011;60852;52.190;4.422;2023-03-23T04:33:21;10.03;;;6.83;;
68942;SDS011;60852;52.190;4.422;2023-03-23T04:35:50;10.77;;;7.23;;
68942;SDS011;60852;52.190;4.422;2023-03-23T04:38:19;10.65;;;7.07;;
68942;SDS011;60852;52.190;4.422;2023-03-23T04:40:46;10.24;;;6.79;;
68942;SDS011;60852;52.190;4.422;2023-03-23T04:43:16;11.05;;;7.39;;
68942;SDS011;60852;52.190;4.422;2023-03-23T04:45:46;11.60;;;7.79;;
68942;SDS011;60852;52.190;4.422;2023-03-23T04:48:12;10.62;;;7.01;;
68942;SDS011;60852;52.190;4.422;2023-03-23T04:50:38;10.56;;;6.95;;
68942;SDS011;60852;52.190;4.422;2023-03-23T04:53:04;11.57;;;7.49;;
68942;SDS011;60852;52.190;4.422;2023-03-23T04:55:34;13.00;;;8.36;;
68942;SDS011;60852;52.190;4.422;2023-03-23T04:58:02;12.42;;;8.05;;
68942;SDS011;60852;52.190;4.422;2023-03-23T05:00:28;13.01;;;8.36;;
68942;SDS011;60852;52.190;4.422;2023-03-23T05:02:54;13.98;;;8.91;;
68942;SDS011;60852;52.190;4.422;2023-03-23T05:05:20;13.98;;;8.91;;
68942;SDS011;60852;52.190;4.422;2023-03-23T05:07:47;13.78;;;8.90;;
68942;SDS011;60852;52.190;4.422;2023-03-23T05:10:13;13.83;;;9.09;;
68942;SDS011;60852;52.190;4.422;2023-03-23T05:12:40;13.88;;;9.03;;
68942;SDS011;60852;52.190;4.422;2023-03-23T05:15:07;16.29;;;10.38;;
68942;SDS011;60852;52.190;4.422;2023-03-23T05:17:33;15.08;;;9.58;;
68942;SDS011;60852;52.190;4.422;2023-03-23T05:19:59;17.09;;;10.90;;
68942;SDS011;60852;52.190;4.422;2023-03-23T05:22:27;15.83;;;10.13;;
68942;SDS011;60852;52.190;4.422;2023-03-23T05:24:53;14.70;;;9.60;;
68942;SDS011;60852;52.190;4.422;2023-03-23T05:27:19;15.35;;;9.88;;
68942;SDS011;60852;52.190;4.422;2023-03-23T05:29:45;17.41;;;10.91;;
68942;SDS011;60852;52.190;4.422;2023-03-23T05:32:16;17.16;;;10.79;;
68942;SDS011;60852;52.190;4.422;2023-03-23T05:34:42;14.93;;;9.65;;
68942;SDS011;60852;52.190;4.422;2023-03-23T05:37:08;16.57;;;10.47;;
68942;SDS011;60852;52.190;4.422;2023-03-23T05:39:35;16.97;;;10.75;;
68942;SDS011;60852;52.190;4.422;2023-03-23T05:42:01;15.69;;;10.03;;
68942;SDS011;60852;52.190;4.422;2023-03-23T05:44:29;15.78;;;10.10;;
68942;SDS011;60852;52.190;4.422;2023-03-23T05:46:54;15.59;;;10.07;;
68942;SDS011;60852;52.190;4.422;2023-03-23T05:49:20;15.24;;;9.94;;
68942;SDS011;60852;52.190;4.422;2023-03-23T05:51:46;17.45;;;11.08;;
68942;SDS011;60852;52.190;4.422;2023-03-23T05:54:12;17.40;;;10.99;;
68942;SDS011;60852;52.190;4.422;2023-03-23T05:56:39;15.68;;;10.01;;
68942;SDS011;60852;52.190;4.422;2023-03-23T05:59:05;15.75;;;10.16;;
68942;SDS011;60852;52.190;4.422;2023-03-23T06:01:30;16.07;;;10.20;;
68942;SDS011;60852;52.190;4.422;2023-03-23T06:03:57;14.45;;;9.48;;
68942;SDS011;60852;52.190;4.422;2023-03-23T06:06:28;14.53;;;9.60;;
68942;SDS011;60852;52.190;4.422;2023-03-23T06:08:55;14.87;;;9.82;;
68942;SDS011;60852;52.190;4.422;2023-03-23T06:11:22;13.54;;;9.13;;
68942;SDS011;60852;52.190;4.422;2023-03-23T06:13:51;14.33;;;9.56;;
68942;SDS011;60852;52.190;4.422;2023-03-23T06:16:17;15.65;;;10.26;;
68942;SDS011;60852;52.190;4.422;2023-03-23T06:18:44;17.11;;;11.02;;
68942;SDS011;60852;52.190;4.422;2023-03-23T06:21:10;18.00;;;11.33;;
68942;SDS011;60852;52.190;4.422;2023-03-23T06:23:37;19.22;;;12.11;;
68942;SDS011;60852;52.190;4.422;2023-03-23T06:26:04;17.97;;;11.36;;
68942;SDS011;60852;52.190;4.422;2023-03-23T06:28:32;17.48;;;11.14;;
68942;SDS011;60852;52.190;4.422;2023-03-23T06:30:59;16.53;;;10.66;;
68942;SDS011;60852;52.190;4.422;2023-03-23T06:33:27;16.50;;;10.62;;
68942;SDS011;60852;52.190;4.422;2023-03-23T06:35:52;15.79;;;10.07;;
68942;SDS011;60852;52.190;4.422;2023-03-23T06:38:18;16.47;;;10.45;;
68942;SDS011;60852;52.190;4.422;2023-03-23T06:40:43;17.25;;;10.88;;
68942;SDS011;60852;52.190;4.422;2023-03-23T06:43:12;18.11;;;11.24;;
68942;SDS011;60852;52.190;4.422;2023-03-23T06:45:38;17.38;;;10.91;;
68942;SDS011;60852;52.190;4.422;2023-03-23T06:48:05;17.57;;;10.84;;
68942;SDS011;60852;52.190;4.422;2023-03-23T06:50:31;18.28;;;11.37;;
68942;SDS011;60852;52.190;4.422;2023-03-23T06:52:57;16.84;;;10.69;;
68942;SDS011;60852;52.190;4.422;2023-03-23T06:55:22;16.06;;;10.18;;
68942;SDS011;60852;52.190;4.422;2023-03-23T06:57:47;13.15;;;8.58;;
68942;SDS011;60852;52.190;4.422;2023-03-23T07:00:13;15.13;;;9.73;;
68942;SDS011;60852;52.190;4.422;2023-03-23T07:02:39;15.96;;;10.11;;
68942;SDS011;60852;52.190;4.422;2023-03-23T07:05:06;16.17;;;10.28;;
68942;SDS011;60852;52.190;4.422;2023-03-23T07:07:39;14.82;;;9.41;;
68942;SDS011;60852;52.190;4.422;2023-03-23T07:10:06;16.15;;;10.27;;
68942;SDS011;60852;52.190;4.422;2023-03-23T07:12:36;15.54;;;9.72;;
68942;SDS011;60852;52.190;4.422;2023-03-23T07:15:02;13.87;;;8.98;;
68942;SDS011;60852;52.190;4.422;2023-03-23T07:17:28;14.87;;;9.60;;
68942;SDS011;60852;52.190;4.422;2023-03-23T07:19:54;15.04;;;9.54;;
68942;SDS011;60852;52.190;4.422;2023-03-23T07:22:19;16.33;;;10.30;;
68942;SDS011;60852;52.190;4.422;2023-03-23T07:24:45;14.12;;;8.98;;
68942;SDS011;60852;52.190;4.422;2023-03-23T07:27:11;14.82;;;9.39;;
68942;SDS011;60852;52.190;4.422;2023-03-23T07:29:36;14.80;;;9.30;;
68942;SDS011;60852;52.190;4.422;2023-03-23T07:32:04;14.50;;;9.15;;
68942;SDS011;60852;52.190;4.422;2023-03-23T07:34:31;15.50;;;9.74;;
68942;SDS011;60852;52.190;4.422;2023-03-23T07:36:58;13.50;;;8.54;;
68942;SDS011;60852;52.190;4.422;2023-03-23T07:39:24;13.69;;;8.75;;
68942;SDS011;60852;52.190;4.422;2023-03-23T07:41:50;12.68;;;8.15;;
68942;SDS011;60852;52.190;4.422;2023-03-23T07:44:16;12.58;;;8.20;;
68942;SDS011;60852;52.190;4.422;2023-03-23T07:46:42;12.49;;;8.02;;
68942;SDS011;60852;52.190;4.422;2023-03-23T07:49:08;12.14;;;7.85;;
68942;SDS011;60852;52.190;4.422;2023-03-23T07:51:35;12.60;;;8.16;;
68942;SDS011;60852;52.190;4.422;2023-03-23T07:54:03;10.87;;;7.14;;
68942;SDS011;60852;52.190;4.422;2023-03-23T07:56:30;10.71;;;7.05;;
68942;SDS011;60852;52.190;4.422;2023-03-23T07:58:55;11.64;;;7.58;;
68942;SDS011;60852;52.190;4.422;2023-03-23T08:01:21;11.20;;;7.20;;
68942;SDS011;60852;52.190;4.422;2023-03-23T08:03:48;12.21;;;7.81;;
68942;SDS011;60852;52.190;4.422;2023-03-23T08:06:13;13.31;;;8.43;;
68942;SDS011;60852;52.190;4.422;2023-03-23T08:08:40;12.26;;;7.81;;
68942;SDS011;60852;52.190;4.422;2023-03-23T08:11:06;11.73;;;7.50;;
68942;SDS011;60852;52.190;4.422;2023-03-23T08:13:31;10.82;;;6.89;;
68942;SDS011;60852;52.190;4.422;2023-03-23T08:15:58;12.00;;;7.74;;
68942;SDS011;60852;52.190;4.422;2023-03-23T08:18:28;10.47;;;6.83;;
68942;SDS011;60852;52.190;4.422;2023-03-23T08:20:54;10.95;;;7.15;;
68942;SDS011;60852;52.190;4.422;2023-03-23T08:23:20;12.49;;;8.05;;
68942;SDS011;60852;52.190;4.422;2023-03-23T08:25:46;12.16;;;7.83;;
68942;SDS011;60852;52.190;4.422;2023-03-23T08:28:13;10.15;;;6.81;;
68942;SDS011;60852;52.190;4.422;2023-03-23T08:30:39;11.01;;;7.30;;
68942;SDS011;60852;52.190;4.422;2023-03-23T08:33:06;11.18;;;7.41;;
68942;SDS011;60852;52.190;4.422;2023-03-23T08:35:32;11.18;;;7.35;;
68942;SDS011;60852;52.190;4.422;2023-03-23T08:37:57;11.05;;;7.22;;
68942;SDS011;60852;52.190;4.422;2023-03-23T08:40:23;12.13;;;7.90;;
68942;SDS011;60852;52.190;4.422;2023-03-23T08:42:50;12.37;;;7.95;;
68942;SDS011;60852;52.190;4.422;2023-03-23T08:45:19;13.49;;;8.55;;
68942;SDS011;60852;52.190;4.422;2023-03-23T08:47:47;14.09;;;8.81;;
68942;SDS011;60852;52.190;4.422;2023-03-23T08:50:17;14.36;;;8.88;;
68942;SDS011;60852;52.190;4.422;2023-03-23T08:52:44;15.87;;;9.80;;
68942;SDS011;60852;52.190;4.422;2023-03-23T08:55:10;14.75;;;9.16;;
68942;SDS011;60852;52.190;4.422;2023-03-23T08:57:37;13.46;;;8.52;;
68942;SDS011;60852;52.190;4.422;2023-03-23T09:00:04;13.23;;;8.41;;
68942;SDS011;60852;52.190;4.422;2023-03-23T09:02:46;13.55;;;8.52;;
68942;SDS011;60852;52.190;4.422;2023-03-23T09:05:18;12.91;;;8.08;;
68942;SDS011;60852;52.190;4.422;2023-03-23T09:07:47;13.96;;;8.59;;
68942;SDS011;60852;52.190;4.422;2023-03-23T09:10:15;14.52;;;8.92;;
68942;SDS011;60852;52.190;4.422;2023-03-23T09:12:42;12.91;;;8.01;;
68942;SDS011;60852;52.190;4.422;2023-03-23T09:15:10;14.36;;;8.84;;
68942;SDS011;60852;52.190;4.422;2023-03-23T09:17:39;13.70;;;8.48;;
68942;SDS011;60852;52.190;4.422;2023-03-23T09:20:10;12.90;;;8.13;;
68942;SDS011;60852;52.190;4.422;2023-03-23T09:22:39;12.48;;;7.95;;
68942;SDS011;60852;52.190;4.422;2023-03-23T09:25:06;12.75;;;8.09;;
68942;SDS011;60852;52.190;4.422;2023-03-23T09:27:33;12.55;;;7.95;;
68942;SDS011;60852;52.190;4.422;2023-03-23T09:30:02;13.95;;;8.65;;
68942;SDS011;60852;52.190;4.422;2023-03-23T09:32:31;14.20;;;8.87;;
68942;SDS011;60852;52.190;4.422;2023-03-23T09:34:59;13.20;;;8.40;;
68942;SDS011;60852;52.190;4.422;2023-03-23T09:37:25;13.18;;;8.37;;
68942;SDS011;60852;52.190;4.422;2023-03-23T09:39:51;15.61;;;9.79;;
68942;SDS011;60852;52.190;4.422;2023-03-23T09:44:57;16.85;;;10.37;;
68942;SDS011;60852;52.190;4.422;2023-03-23T09:47:35;16.26;;;10.07;;
68942;SDS011;60852;52.190;4.422;2023-03-23T09:52:45;15.93;;;9.89;;
68942;SDS011;60852;52.190;4.422;2023-03-23T09:55:23;15.02;;;9.45;;
68942;SDS011;60852;52.190;4.422;2023-03-23T09:58:01;14.53;;;9.13;;
68942;SDS011;60852;52.190;4.422;2023-03-23T10:00:54;15.72;;;9.85;;
68942;SDS011;60852;52.190;4.422;2023-03-23T10:03:30;15.30;;;9.39;;
68942;SDS011;60852;52.190;4.422;2023-03-23T10:06:01;15.87;;;9.83;;
68942;SDS011;60852;52.190;4.422;2023-03-23T10:08:29;16.52;;;10.17;;
68942;SDS011;60852;52.190;4.422;2023-03-23T10:10:59;15.76;;;9.90;;
68942;SDS011;60852;52.190;4.422;2023-03-23T10:13:34;16.80;;;10.59;;
68942;SDS011;60852;52.190;4.422;2023-03-23T10:16:20;17.14;;;10.72;;
68942;SDS011;60852;52.190;4.422;2023-03-23T10:21:27;14.94;;;9.41;;
68942;SDS011;60852;52.190;4.422;2023-03-23T10:23:58;15.10;;;9.50;;
68942;SDS011;60852;52.190;4.422;2023-03-23T10:31:35;16.88;;;10.54;;
68942;SDS011;60852;52.190;4.422;2023-03-23T10:34:09;15.46;;;9.52;;
68942;SDS011;60852;52.190;4.422;2023-03-23T10:36:51;15.90;;;10.00;;
68942;SDS011;60852;52.190;4.422;2023-03-23T10:39:31;14.41;;;9.25;;
68942;SDS011;60852;52.190;4.422;2023-03-23T10:42:10;15.34;;;9.63;;
68942;SDS011;60852;52.190;4.422;2023-03-23T10:44:35;15.85;;;9.85;;
68942;SDS011;60852;52.190;4.422;2023-03-23T10:47:05;16.41;;;10.18;;
68942;SDS011;60852;52.190;4.422;2023-03-23T10:49:34;16.19;;;10.01;;
68942;SDS011;60852;52.190;4.422;2023-03-23T10:55:12;16.84;;;10.37;;
68942;SDS011;60852;52.190;4.422;2023-03-23T10:57:41;15.92;;;9.95;;
68942;SDS011;60852;52.190;4.422;2023-03-23T11:00:23;14.03;;;8.89;;
68942;SDS011;60852;52.190;4.422;2023-03-23T11:03:06;15.48;;;9.52;;
68942;SDS011;60852;52.190;4.422;2023-03-23T11:05:42;16.47;;;10.13;;
68942;SDS011;60852;52.190;4.422;2023-03-23T11:08:14;17.84;;;10.96;;
68942;SDS011;60852;52.190;4.422;2023-03-23T11:10:50;18.53;;;11.40;;
68942;SDS011;60852;52.190;4.422;2023-03-23T11:13:21;16.63;;;10.25;;
68942;SDS011;60852;52.190;4.422;2023-03-23T11:15:52;15.73;;;9.90;;
68942;SDS011;60852;52.190;4.422;2023-03-23T11:18:19;15.29;;;9.66;;
68942;SDS011;60852;52.190;4.422;2023-03-23T11:20:52;17.41;;;10.86;;
68942;SDS011;60852;52.190;4.422;2023-03-23T11:29:16;15.41;;;9.74;;
68942;SDS011;60852;52.190;4.422;2023-03-23T11:31:45;14.89;;;9.39;;
68942;SDS011;60852;52.190;4.422;2023-03-23T11:37:01;13.13;;;8.57;;
68942;SDS011;60852;52.190;4.422;2023-03-23T11:39:45;12.99;;;8.61;;
68942;SDS011;60852;52.190;4.422;2023-03-23T11:42:18;10.92;;;7.41;;
68942;SDS011;60852;52.190;4.422;2023-03-23T11:44:48;11.13;;;7.52;;
68942;SDS011;60852;52.190;4.422;2023-03-23T11:50:00;11.56;;;7.40;;
68942;SDS011;60852;52.190;4.422;2023-03-23T11:55:10;10.72;;;7.03;;
68942;SDS011;60852;52.190;4.422;2023-03-23T11:57:44;12.09;;;8.14;;
68942;SDS011;60852;52.190;4.422;2023-03-23T12:00:16;11.00;;;7.18;;
68942;SDS011;60852;52.190;4.422;2023-03-23T12:08:35;10.70;;;7.03;;
68942;SDS011;60852;52.190;4.422;2023-03-23T12:19:16;12.00;;;7.74;;
68942;SDS011;60852;52.190;4.422;2023-03-23T12:21:59;10.24;;;6.81;;
68942;SDS011;60852;52.190;4.422;2023-03-23T12:27:01;11.15;;;7.25;;
68942;SDS011;60852;52.190;4.422;2023-03-23T12:43:10;11.28;;;7.28;;
68942;SDS011;60852;52.190;4.422;2023-03-23T12:48:43;10.93;;;7.45;;
68942;SDS011;60852;52.190;4.422;2023-03-23T12:56:26;10.66;;;7.33;;
68942;SDS011;60852;52.190;4.422;2023-03-23T13:01:50;11.41;;;7.51;;
68942;SDS011;60852;52.190;4.422;2023-03-23T13:04:23;10.89;;;7.10;;
68942;SDS011;60852;52.190;4.422;2023-03-23T13:06:56;11.47;;;7.32;;
68942;SDS011;60852;52.190;4.422;2023-03-23T13:09:43;11.59;;;7.39;;
68942;SDS011;60852;52.190;4.422;2023-03-23T13:12:13;11.73;;;7.53;;
68942;SDS011;60852;52.190;4.422;2023-03-23T13:14:48;11.92;;;7.73;;
68942;SDS011;60852;52.190;4.422;2023-03-23T13:17:36;11.80;;;7.56;;
68942;SDS011;60852;52.190;4.422;2023-03-23T13:23:18;12.95;;;8.23;;
68942;SDS011;60852;52.190;4.422;2023-03-23T13:28:19;13.60;;;8.69;;
68942;SDS011;60852;52.190;4.422;2023-03-23T13:31:00;13.77;;;8.76;;
68942;SDS011;60852;52.190;4.422;2023-03-23T13:33:30;13.81;;;8.75;;
68942;SDS011;60852;52.190;4.422;2023-03-23T13:36:02;14.28;;;9.02;;
68942;SDS011;60852;52.190;4.422;2023-03-23T13:38:36;15.48;;;9.64;;
68942;SDS011;60852;52.190;4.422;2023-03-23T13:41:13;14.35;;;9.09;;
68942;SDS011;60852;52.190;4.422;2023-03-23T13:43:43;15.98;;;9.86;;
68942;SDS011;60852;52.190;4.422;2023-03-23T13:54:14;12.63;;;8.17;;
68942;SDS011;60852;52.190;4.422;2023-03-23T13:56:52;14.00;;;8.96;;
68942;SDS011;60852;52.190;4.422;2023-03-23T14:01:56;14.05;;;8.92;;
68942;SDS011;60852;52.190;4.422;2023-03-23T14:04:56;14.89;;;9.35;;
68942;SDS011;60852;52.190;4.422;2023-03-23T14:07:49;14.07;;;8.83;;
68942;SDS011;60852;52.190;4.422;2023-03-23T14:10:25;13.70;;;8.82;;
68942;SDS011;60852;52.190;4.422;2023-03-23T14:13:03;12.91;;;8.26;;
68942;SDS011;60852;52.190;4.422;2023-03-23T14:15:53;13.67;;;8.48;;
68942;SDS011;60852;52.190;4.422;2023-03-23T14:18:26;13.28;;;8.36;;
68942;SDS011;60852;52.190;4.422;2023-03-23T14:20:57;13.74;;;8.56;;
68942;SDS011;60852;52.190;4.422;2023-03-23T14:23:24;14.58;;;9.08;;
68942;SDS011;60852;52.190;4.422;2023-03-23T14:25:56;13.80;;;8.53;;
68942;SDS011;60852;52.190;4.422;2023-03-23T14:28:31;15.63;;;9.55;;
68942;SDS011;60852;52.190;4.422;2023-03-23T14:30:58;14.11;;;8.73;;
68942;SDS011;60852;52.190;4.422;2023-03-23T14:33:25;12.79;;;8.11;;
68942;SDS011;60852;52.190;4.422;2023-03-23T14:35:52;13.40;;;8.51;;
68942;SDS011;60852;52.190;4.422;2023-03-23T14:38:19;13.24;;;8.38;;
68942;SDS011;60852;52.190;4.422;2023-03-23T14:40:49;12.57;;;8.10;;
68942;SDS011;60852;52.190;4.422;2023-03-23T14:43:16;13.97;;;8.94;;
68942;SDS011;60852;52.190;4.422;2023-03-23T14:45:49;13.53;;;8.63;;
68942;SDS011;60852;52.190;4.422;2023-03-23T14:48:17;13.53;;;8.51;;
68942;SDS011;60852;52.190;4.422;2023-03-23T14:50:56;16.18;;;10.02;;
68942;SDS011;60852;52.190;4.422;2023-03-23T14:53:23;15.70;;;9.73;;
68942;SDS011;60852;52.190;4.422;2023-03-23T14:55:54;15.56;;;9.64;;
68942;SDS011;60852;52.190;4.422;2023-03-23T14:58:21;16.43;;;10.18;;
68942;SDS011;60852;52.190;4.422;2023-03-23T15:00:50;15.63;;;9.71;;
68942;SDS011;60852;52.190;4.422;2023-03-23T15:03:34;14.87;;;9.31;;
68942;SDS011;60852;52.190;4.422;2023-03-23T15:06:22;14.90;;;9.42;;
68942;SDS011;60852;52.190;4.422;2023-03-23T15:08:53;15.15;;;9.53;;
68942;SDS011;60852;52.190;4.422;2023-03-23T15:11:24;16.62;;;10.26;;
68942;SDS011;60852;52.190;4.422;2023-03-23T15:13:55;16.69;;;10.35;;
68942;SDS011;60852;52.190;4.422;2023-03-23T15:16:28;17.12;;;10.48;;
68942;SDS011;60852;52.190;4.422;2023-03-23T15:18:57;16.77;;;10.30;;
68942;SDS011;60852;52.190;4.422;2023-03-23T15:21:35;16.70;;;10.31;;
68942;SDS011;60852;52.190;4.422;2023-03-23T15:24:19;16.39;;;10.21;;
68942;SDS011;60852;52.190;4.422;2023-03-23T15:26:52;16.19;;;10.16;;
68942;SDS011;60852;52.190;4.422;2023-03-23T15:29:19;16.22;;;10.20;;
68942;SDS011;60852;52.190;4.422;2023-03-23T15:31:49;15.66;;;9.79;;
68942;SDS011;60852;52.190;4.422;2023-03-23T15:34:31;15.14;;;9.71;;
68942;SDS011;60852;52.190;4.422;2023-03-23T15:37:04;13.36;;;8.72;;
68942;SDS011;60852;52.190;4.422;2023-03-23T15:39:46;14.39;;;9.28;;
68942;SDS011;60852;52.190;4.422;2023-03-23T15:45:04;14.56;;;9.38;;
68942;SDS011;60852;52.190;4.422;2023-03-23T15:47:49;14.22;;;9.34;;
68942;SDS011;60852;52.190;4.422;2023-03-23T15:52:42;14.50;;;9.42;;
68942;SDS011;60852;52.190;4.422;2023-03-23T15:55:41;13.94;;;9.14;;
68942;SDS011;60852;52.190;4.422;2023-03-23T15:58:07;13.65;;;8.83;;
68942;SDS011;60852;52.190;4.422;2023-03-23T16:00:36;14.87;;;9.48;;
68942;SDS011;60852;52.190;4.422;2023-03-23T16:03:06;14.03;;;8.92;;
68942;SDS011;60852;52.190;4.422;2023-03-23T16:05:36;16.00;;;10.04;;
68942;SDS011;60852;52.190;4.422;2023-03-23T16:08:02;16.50;;;10.20;;
68942;SDS011;60852;52.190;4.422;2023-03-23T16:10:28;16.51;;;10.21;;
68942;SDS011;60852;52.190;4.422;2023-03-23T16:12:54;15.26;;;9.50;;
68942;SDS011;60852;52.190;4.422;2023-03-23T16:15:20;15.31;;;9.57;;
68942;SDS011;60852;52.190;4.422;2023-03-23T16:17:46;13.92;;;8.91;;
68942;SDS011;60852;52.190;4.422;2023-03-23T16:20:19;13.94;;;8.87;;
68942;SDS011;60852;52.190;4.422;2023-03-23T16:22:46;14.61;;;9.26;;
68942;SDS011;60852;52.190;4.422;2023-03-23T16:25:13;13.35;;;8.62;;
68942;SDS011;60852;52.190;4.422;2023-03-23T16:27:39;12.92;;;8.46;;
68942;SDS011;60852;52.190;4.422;2023-03-23T16:30:11;12.50;;;8.21;;
68942;SDS011;60852;52.190;4.422;2023-03-23T16:32:41;12.91;;;8.38;;
68942;SDS011;60852;52.190;4.422;2023-03-23T16:35:07;15.39;;;9.79;;
68942;SDS011;60852;52.190;4.422;2023-03-23T16:37:33;13.51;;;8.71;;
68942;SDS011;60852;52.190;4.422;2023-03-23T16:39:59;13.55;;;8.65;;
68942;SDS011;60852;52.190;4.422;2023-03-23T16:42:25;13.33;;;8.64;;
68942;SDS011;60852;52.190;4.422;2023-03-23T16:44:51;14.12;;;9.02;;
68942;SDS011;60852;52.190;4.422;2023-03-23T16:47:18;14.94;;;9.64;;
68942;SDS011;60852;52.190;4.422;2023-03-23T16:49:47;14.41;;;9.34;;
68942;SDS011;60852;52.190;4.422;2023-03-23T16:52:13;14.39;;;9.30;;
68942;SDS011;60852;52.190;4.422;2023-03-23T16:54:38;13.56;;;8.76;;
68942;SDS011;60852;52.190;4.422;2023-03-23T16:57:04;14.35;;;9.31;;
68942;SDS011;60852;52.190;4.422;2023-03-23T16:59:30;15.54;;;9.78;;
68942;SDS011;60852;52.190;4.422;2023-03-23T17:01:56;15.34;;;9.67;;
68942;SDS011;60852;52.190;4.422;2023-03-23T17:04:27;14.69;;;9.40;;
68942;SDS011;60852;52.190;4.422;2023-03-23T17:06:53;14.27;;;9.05;;
68942;SDS011;60852;52.190;4.422;2023-03-23T17:09:18;15.01;;;9.44;;
68942;SDS011;60852;52.190;4.422;2023-03-23T17:11:44;14.08;;;9.00;;
68942;SDS011;60852;52.190;4.422;2023-03-23T17:14:09;14.72;;;9.42;;
68942;SDS011;60852;52.190;4.422;2023-03-23T17:16:35;14.44;;;9.26;;
68942;SDS011;60852;52.190;4.422;2023-03-23T17:19:00;16.46;;;10.39;;
68942;SDS011;60852;52.190;4.422;2023-03-23T17:21:26;15.65;;;9.87;;
68942;SDS011;60852;52.190;4.422;2023-03-23T17:23:51;14.92;;;9.43;;
68942;SDS011;60852;52.190;4.422;2023-03-23T17:26:17;15.67;;;9.89;;
68942;SDS011;60852;52.190;4.422;2023-03-23T17:28:43;15.51;;;10.02;;
68942;SDS011;60852;52.190;4.422;2023-03-23T17:31:08;15.22;;;9.79;;
68942;SDS011;60852;52.190;4.422;2023-03-23T17:33:34;15.32;;;9.76;;
68942;SDS011;60852;52.190;4.422;2023-03-23T17:35:59;13.63;;;8.98;;
68942;SDS011;60852;52.190;4.422;2023-03-23T17:38:25;12.52;;;8.42;;
68942;SDS011;60852;52.190;4.422;2023-03-23T17:41:00;14.25;;;9.39;;
68942;SDS011;60852;52.190;4.422;2023-03-23T17:43:28;15.32;;;9.91;;
68942;SDS011;60852;52.190;4.422;2023-03-23T17:45:54;12.95;;;8.62;;
68942;SDS011;60852;52.190;4.422;2023-03-23T17:48:19;13.94;;;9.19;;